createdAt,value
2023-09-24T00:00:00.931Z,16.80
2023-09-24T00:02:30.493Z,17.18
2023-09-24T00:04:58.509Z,17.10
2023-09-24T00:07:27.113Z,16.91
2023-09-24T00:09:55.266Z,16.80
2023-09-24T00:12:24.463Z,16.92
2023-09-24T00:14:54.266Z,16.89
2023-09-24T00:17:22.617Z,16.99
2023-09-24T00:19:51.839Z,16.68
2023-09-24T00:22:19.924Z,16.90
2023-09-24T00:24:48.301Z,16.47
2023-09-24T00:27:16.493Z,16.65
2023-09-24T00:29:44.614Z,16.60
2023-09-24T00:32:13.602Z,16.79
2023-09-24T00:34:41.716Z,16.62
2023-09-24T00:37:13.196Z,16.84
2023-09-24T00:39:41.751Z,16.77
2023-09-24T00:42:10.425Z,16.79
2023-09-24T00:44:38.575Z,16.41
2023-09-24T00:47:06.541Z,16.50
2023-09-24T00:49:34.712Z,16.50
2023-09-24T00:52:03.741Z,16.60
2023-09-24T00:54:33.323Z,16.50
2023-09-24T00:57:03.575Z,17.07
2023-09-24T00:59:31.962Z,16.72
2023-09-24T01:02:00.756Z,16.84
2023-09-24T01:04:28.865Z,16.46
2023-09-24T01:06:57.812Z,16.64
2023-09-24T01:09:25.801Z,17.00
2023-09-24T01:11:56.446Z,16.56
2023-09-24T01:14:26.995Z,16.88
2023-09-24T01:16:54.724Z,16.58
2023-09-24T01:19:23.332Z,17.06
2023-09-24T01:21:52.991Z,16.30
2023-09-24T01:24:22.791Z,16.36
2023-09-24T01:26:52.796Z,16.82
2023-09-24T01:29:22.343Z,16.59
2023-09-24T01:31:51.147Z,17.12
2023-09-24T01:34:20.233Z,17.32
2023-09-24T01:36:48.259Z,16.90
2023-09-24T01:39:19.116Z,16.94
2023-09-24T01:41:48.577Z,17.13
2023-09-24T01:44:18.410Z,16.60
2023-09-24T01:46:47.796Z,16.81
2023-09-24T01:49:18.039Z,17.35
2023-09-24T01:51:47.859Z,17.27
2023-09-24T01:54:16.962Z,16.84
2023-09-24T01:56:45.051Z,17.11
2023-09-24T01:59:18.085Z,17.15
2023-09-24T02:01:46.264Z,17.28
2023-09-24T02:04:14.303Z,17.07
2023-09-24T02:06:42.901Z,16.86
2023-09-24T02:09:14.735Z,17.16
2023-09-24T02:11:43.550Z,16.41
2023-09-24T02:14:12.430Z,16.96
2023-09-24T02:16:44.448Z,16.65
2023-09-24T02:19:15.960Z,16.57
2023-09-24T02:21:43.972Z,16.59
2023-09-24T02:24:11.994Z,16.38
2023-09-24T02:26:40.149Z,16.52
2023-09-24T02:29:09.303Z,16.65
2023-09-24T02:31:38.286Z,16.90
2023-09-24T02:34:08.125Z,16.56
2023-09-24T02:36:36.297Z,16.62
2023-09-24T02:39:04.874Z,16.49
2023-09-24T02:41:32.925Z,16.11
2023-09-24T02:44:03.074Z,16.61
2023-09-24T02:46:31.787Z,16.54
2023-09-24T02:48:59.709Z,16.52
2023-09-24T02:51:30.917Z,16.26
2023-09-24T02:53:59.557Z,16.50
2023-09-24T02:56:30.276Z,16.35
2023-09-24T02:58:59.950Z,16.23
2023-09-24T03:01:28.147Z,16.44
2023-09-24T03:03:57.293Z,16.19
2023-09-24T03:06:28.046Z,16.45
2023-09-24T03:08:59.147Z,15.99
2023-09-24T03:11:27.114Z,16.14
2023-09-24T03:13:55.113Z,16.11
2023-09-24T03:16:24.272Z,16.17
2023-09-24T03:18:52.308Z,15.96
2023-09-24T03:21:20.516Z,16.26
2023-09-24T03:23:48.898Z,16.38
2023-09-24T03:26:20.884Z,16.48
2023-09-24T03:28:51.753Z,16.31
2023-09-24T03:31:19.679Z,16.49
2023-09-24T03:33:48.418Z,16.63
2023-09-24T03:36:16.727Z,16.50
2023-09-24T03:38:44.736Z,16.49
2023-09-24T03:41:13.276Z,16.63
2023-09-24T03:43:43.513Z,16.32
2023-09-24T03:46:12.392Z,16.29
2023-09-24T03:48:40.295Z,16.03
2023-09-24T03:51:08.351Z,16.27
2023-09-24T03:53:37.234Z,16.31
2023-09-24T03:56:08.867Z,16.23
2023-09-24T03:58:36.937Z,15.90
2023-09-24T04:01:14.136Z,15.96
2023-09-24T04:03:42.331Z,16.12
2023-09-24T04:06:11.794Z,15.71
2023-09-24T04:08:40.327Z,16.32
2023-09-24T04:11:09.995Z,15.98
2023-09-24T04:13:40.249Z,15.94
2023-09-24T04:16:10.883Z,16.09
2023-09-24T04:18:41.208Z,15.87
2023-09-24T04:21:18.881Z,15.92
2023-09-24T04:23:48.100Z,16.10
2023-09-24T04:26:21.359Z,16.37
2023-09-24T04:28:49.804Z,16.09
2023-09-24T04:31:18.090Z,16.12
2023-09-24T04:33:49.949Z,15.98
2023-09-24T04:36:21.228Z,15.84
2023-09-24T04:38:49.624Z,15.82
2023-09-24T04:41:28.643Z,16.26
2023-09-24T04:43:56.641Z,16.38
2023-09-24T04:46:28.016Z,16.49
2023-09-24T04:48:59.316Z,16.46
2023-09-24T04:51:27.161Z,15.98
2023-09-24T04:53:56.697Z,16.28
2023-09-24T04:56:27.576Z,16.27
2023-09-24T04:58:56.674Z,16.14
2023-09-24T05:01:24.777Z,16.50
2023-09-24T05:03:53.220Z,16.34
2023-09-24T05:06:23.075Z,16.03
2023-09-24T05:08:51.058Z,16.24
2023-09-24T05:11:18.886Z,16.02
2023-09-24T05:13:47.418Z,16.27
2023-09-24T05:16:17.079Z,15.91
2023-09-24T05:18:44.922Z,16.11
2023-09-24T05:21:16.305Z,15.92
2023-09-24T05:23:46.250Z,15.29
2023-09-24T05:26:15.162Z,15.67
2023-09-24T05:28:43.943Z,15.80
2023-09-24T05:31:11.793Z,15.79
2023-09-24T05:33:39.767Z,15.52
2023-09-24T05:36:07.959Z,15.63
2023-09-24T05:38:35.719Z,15.60
2023-09-24T05:41:06.806Z,15.05
2023-09-24T05:43:34.529Z,15.26
2023-09-24T05:46:03.715Z,15.85
2023-09-24T05:48:34.217Z,15.90
2023-09-24T05:51:05.520Z,15.63
2023-09-24T05:53:34.061Z,15.57
2023-09-24T05:56:05.335Z,15.32
2023-09-24T05:58:35.204Z,15.45
2023-09-24T06:01:05.193Z,15.11
2023-09-24T06:03:33.665Z,15.45
2023-09-24T06:06:01.873Z,15.20
2023-09-24T06:08:29.666Z,14.92
2023-09-24T06:10:58.830Z,15.26
2023-09-24T06:13:26.738Z,15.12
2023-09-24T06:16:01.729Z,15.05
2023-09-24T06:18:29.929Z,15.13
2023-09-24T06:20:58.370Z,15.45
2023-09-24T06:23:26.557Z,15.66
2023-09-24T06:25:58.116Z,15.91
2023-09-24T06:28:26.359Z,15.79
2023-09-24T06:31:02.175Z,15.70
2023-09-24T06:33:30.169Z,15.96
2023-09-24T06:35:58.777Z,15.72
2023-09-24T06:38:27.200Z,15.94
2023-09-24T06:40:58.814Z,15.47
2023-09-24T06:43:27.619Z,15.74
2023-09-24T06:45:56.421Z,15.53
2023-09-24T06:48:27.038Z,16.04
2023-09-24T06:50:56.346Z,16.25
2023-09-24T06:53:24.915Z,15.72
2023-09-24T06:55:52.916Z,16.12
2023-09-24T06:58:20.915Z,15.44
2023-09-24T07:00:49.192Z,16.03
2023-09-24T07:03:17.837Z,15.83
2023-09-24T07:05:48.154Z,16.20
2023-09-24T07:08:18.170Z,16.65
2023-09-24T07:10:48.605Z,16.81
2023-09-24T07:13:16.778Z,16.91
2023-09-24T07:15:44.570Z,17.04
2023-09-24T07:18:12.723Z,16.52
2023-09-24T07:20:41.019Z,16.85
2023-09-24T07:23:10.193Z,16.42
2023-09-24T07:25:39.615Z,17.40
2023-09-24T07:28:07.416Z,17.27
2023-09-24T07:30:36.210Z,17.01
2023-09-24T07:33:04.363Z,17.27
2023-09-24T07:35:32.174Z,17.34
2023-09-24T07:38:00.062Z,17.13
2023-09-24T07:40:29.383Z,17.20
2023-09-24T07:42:58.052Z,17.71
2023-09-24T07:45:25.928Z,17.40
2023-09-24T07:47:55.197Z,17.64
2023-09-24T07:50:24.080Z,17.70
2023-09-24T07:52:51.817Z,17.90
2023-09-24T07:55:19.609Z,18.70
2023-09-24T07:57:48.779Z,18.62
2023-09-24T08:00:16.739Z,19.26
2023-09-24T08:02:46.085Z,20.19
2023-09-24T08:05:16.348Z,20.38
2023-09-24T08:07:45.933Z,19.40
2023-09-24T08:10:13.624Z,20.27
2023-09-24T08:12:42.531Z,19.72
2023-09-24T08:15:12.480Z,19.84
2023-09-24T08:17:41.044Z,20.55
2023-09-24T08:20:09.951Z,20.43
2023-09-24T08:22:39.310Z,20.79
2023-09-24T08:25:09.794Z,20.64
2023-09-24T08:27:38.239Z,20.50
2023-09-24T08:30:06.868Z,20.89
2023-09-24T08:32:36.787Z,20.56
2023-09-24T08:35:04.745Z,20.61
2023-09-24T08:37:34.812Z,19.86
2023-09-24T08:40:02.984Z,20.26
2023-09-24T08:42:32.541Z,19.58
2023-09-24T08:45:06.703Z,20.35
2023-09-24T08:47:37.925Z,21.33
2023-09-24T08:50:06.623Z,22.31
2023-09-24T08:52:36.665Z,21.77
2023-09-24T08:55:07.480Z,23.17
2023-09-24T08:57:35.716Z,23.31
2023-09-24T09:00:05.729Z,22.74
2023-09-24T09:02:36.089Z,24.33
2023-09-24T09:05:10.544Z,24.44
2023-09-24T09:07:49.033Z,24.13
2023-09-24T09:10:17.016Z,22.10
2023-09-24T09:12:48.119Z,24.25
2023-09-24T09:15:18.672Z,24.61
2023-09-24T09:17:46.642Z,24.78
2023-09-24T09:20:16.246Z,24.73
2023-09-24T09:22:48.644Z,24.77
2023-09-24T09:25:17.492Z,24.87
2023-09-24T09:27:45.999Z,24.41
2023-09-24T09:30:16.928Z,24.75
2023-09-24T09:32:46.895Z,25.25
2023-09-24T09:35:18.126Z,25.29
2023-09-24T09:37:49.790Z,25.40
2023-09-24T09:40:19.631Z,24.88
2023-09-24T09:42:51.281Z,24.95
2023-09-24T09:45:20.116Z,26.24
2023-09-24T09:47:59.306Z,26.41
2023-09-24T09:50:32.488Z,25.45
2023-09-24T09:53:04.981Z,25.92
2023-09-24T09:55:33.600Z,25.21
2023-09-24T09:58:15.708Z,24.16
2023-09-24T10:00:50.096Z,24.73
2023-09-24T10:03:18.989Z,25.64
2023-09-24T10:05:50.669Z,25.85
2023-09-24T10:08:40.914Z,26.52
2023-09-24T10:11:10.224Z,26.35
2023-09-24T10:13:53.416Z,26.87
2023-09-24T10:16:37.117Z,25.27
2023-09-24T10:19:06.932Z,25.19
2023-09-24T10:21:38.406Z,25.74
2023-09-24T10:24:30.217Z,26.61
2023-09-24T10:27:04.177Z,26.12
2023-09-24T10:29:47.592Z,26.59
2023-09-24T10:32:16.323Z,28.14
2023-09-24T10:35:05.736Z,27.52
2023-09-24T10:37:36.924Z,26.68
2023-09-24T10:40:06.601Z,28.08
2023-09-24T10:42:35.460Z,28.10
2023-09-24T10:45:21.662Z,27.76
2023-09-24T10:47:51.979Z,26.87
2023-09-24T10:50:31.344Z,28.94
2023-09-24T10:53:02.066Z,27.36
2023-09-24T10:55:35.441Z,28.11
2023-09-24T10:58:05.080Z,27.03
2023-09-24T11:00:35.338Z,27.60
2023-09-24T11:03:04.707Z,28.71
2023-09-24T11:05:38.008Z,27.57
2023-09-24T11:08:09.173Z,26.99
2023-09-24T11:10:38.813Z,27.90
2023-09-24T11:13:10.713Z,28.59
2023-09-24T11:15:40.047Z,29.25
2023-09-24T11:18:09.869Z,29.81
2023-09-24T11:20:38.092Z,29.32
2023-09-24T11:23:10.578Z,28.27
2023-09-24T11:25:38.992Z,28.75
2023-09-24T11:28:08.871Z,27.44
2023-09-24T11:30:45.335Z,25.61
2023-09-24T11:33:15.059Z,23.79
2023-09-24T11:35:43.076Z,23.66
2023-09-24T11:38:12.292Z,25.56
2023-09-24T11:40:41.030Z,27.02
2023-09-24T11:43:10.917Z,23.98
2023-09-24T11:45:40.080Z,26.24
2023-09-24T11:48:09.584Z,27.31
2023-09-24T11:50:38.444Z,27.65
2023-09-24T11:53:06.653Z,27.24
2023-09-24T11:55:36.652Z,27.12
2023-09-24T11:58:07.335Z,28.19
2023-09-24T12:00:36.916Z,27.05
2023-09-24T12:03:07.675Z,28.28
2023-09-24T12:05:36.011Z,27.21
2023-09-24T12:08:06.985Z,28.88
2023-09-24T12:10:38.862Z,29.08
2023-09-24T12:13:08.132Z,29.31
2023-09-24T12:15:36.175Z,28.78
2023-09-24T12:18:06.452Z,30.15
2023-09-24T12:20:36.404Z,29.84
2023-09-24T12:23:05.868Z,28.53
2023-09-24T12:25:38.132Z,29.32
2023-09-24T12:28:10.004Z,28.37
2023-09-24T12:30:39.125Z,26.64
2023-09-24T12:33:11.481Z,28.06
2023-09-24T12:35:42.748Z,28.54
2023-09-24T12:38:10.966Z,29.47
2023-09-24T12:40:38.899Z,28.64
2023-09-24T12:43:08.523Z,28.02
2023-09-24T12:45:36.270Z,28.62
2023-09-24T12:48:04.619Z,26.61
2023-09-24T12:50:32.642Z,25.40
2023-09-24T12:53:01.687Z,23.94
2023-09-24T12:55:29.471Z,23.53
2023-09-24T12:57:57.177Z,23.18
2023-09-24T13:00:26.818Z,23.54
2023-09-24T13:02:56.375Z,23.52
2023-09-24T13:05:25.138Z,26.29
2023-09-24T13:07:53.307Z,26.64
2023-09-24T13:10:21.276Z,28.26
2023-09-24T13:12:49.502Z,28.68
2023-09-24T13:15:17.763Z,27.27
2023-09-24T13:17:47.375Z,25.33
2023-09-24T13:20:15.767Z,24.25
2023-09-24T13:22:43.674Z,25.23
2023-09-24T13:25:14.791Z,25.19
2023-09-24T13:27:45.279Z,27.49
2023-09-24T13:30:13.538Z,28.99
2023-09-24T13:32:41.506Z,28.56
2023-09-24T13:35:19.714Z,29.44
2023-09-24T13:37:51.028Z,29.52
2023-09-24T13:40:38.163Z,30.12
2023-09-24T13:43:07.146Z,26.11
2023-09-24T13:45:42.939Z,25.59
2023-09-24T13:48:22.100Z,24.54
2023-09-24T13:51:10.016Z,23.65
2023-09-24T13:53:40.080Z,23.35
2023-09-24T13:56:11.809Z,22.97
2023-09-24T13:58:42.820Z,23.34
2023-09-24T14:01:11.796Z,24.92
2023-09-24T14:03:40.241Z,27.49
2023-09-24T14:06:09.542Z,26.87
2023-09-24T14:08:54.853Z,27.40
2023-09-24T14:11:40.709Z,27.26
2023-09-24T14:14:08.658Z,28.81
2023-09-24T14:16:39.086Z,27.19
2023-09-24T14:19:07.299Z,25.34
2023-09-24T14:21:36.622Z,24.31
2023-09-24T14:24:04.437Z,23.65
2023-09-24T14:26:34.645Z,23.42
2023-09-24T14:29:03.321Z,22.39
2023-09-24T14:31:31.386Z,22.68
2023-09-24T14:33:59.042Z,21.86
2023-09-24T14:36:26.716Z,23.67
2023-09-24T14:38:55.702Z,24.76
2023-09-24T14:41:24.484Z,25.25
2023-09-24T14:43:52.239Z,25.88
2023-09-24T14:46:21.159Z,26.99
2023-09-24T14:48:48.941Z,26.22
2023-09-24T14:51:18.741Z,26.15
2023-09-24T14:53:46.898Z,26.12
2023-09-24T14:56:21.820Z,28.03
2023-09-24T14:58:49.430Z,25.07
2023-09-24T15:01:17.152Z,23.77
2023-09-24T15:03:45.531Z,23.41
2023-09-24T15:06:13.478Z,22.73
2023-09-24T15:08:42.204Z,22.64
2023-09-24T15:11:10.113Z,24.19
2023-09-24T15:13:41.552Z,24.04
2023-09-24T15:16:09.336Z,23.34
2023-09-24T15:18:37.293Z,23.84
2023-09-24T15:21:05.478Z,24.57
2023-09-24T15:23:33.105Z,25.50
2023-09-24T15:26:00.737Z,25.40
2023-09-24T15:28:28.377Z,26.08
2023-09-24T15:30:57.366Z,24.93
2023-09-24T15:33:25.119Z,25.41
2023-09-24T15:35:52.886Z,24.99
2023-09-24T15:38:20.536Z,24.81
2023-09-24T15:40:48.426Z,24.49
2023-09-24T15:43:16.060Z,24.75
2023-09-24T15:45:47.752Z,24.77
2023-09-24T15:48:17.179Z,24.24
2023-09-24T15:51:06.202Z,22.60
2023-09-24T15:54:57.740Z,22.04
2023-09-24T15:57:25.391Z,23.12
2023-09-24T15:59:53.038Z,23.08
2023-09-24T16:02:20.650Z,24.16
2023-09-24T16:04:48.899Z,24.14
2023-09-24T16:07:16.556Z,24.87
2023-09-24T16:09:44.173Z,24.59
2023-09-24T16:12:13.332Z,24.21
2023-09-24T16:14:41.020Z,23.65
2023-09-24T16:17:08.582Z,23.67
2023-09-24T16:19:36.171Z,23.61
2023-09-24T16:22:03.791Z,22.62
2023-09-24T16:24:32.269Z,23.61
2023-09-24T16:26:59.894Z,23.26
2023-09-24T16:29:28.889Z,23.03
2023-09-24T16:31:56.529Z,22.99
2023-09-24T16:34:24.159Z,22.84
2023-09-24T16:36:53.498Z,22.36
2023-09-24T16:39:21.287Z,21.76
2023-09-24T16:41:48.906Z,21.19
2023-09-24T16:44:16.591Z,20.89
2023-09-24T16:46:45.536Z,20.40
2023-09-24T16:49:14.516Z,20.28
2023-09-24T16:51:42.080Z,20.23
2023-09-24T16:54:09.722Z,20.31
2023-09-24T16:56:37.310Z,20.07
2023-09-24T16:59:04.929Z,19.62
2023-09-24T17:01:34.245Z,19.89
2023-09-24T17:04:03.456Z,20.08
2023-09-24T17:06:31.471Z,20.00
2023-09-24T17:08:59.239Z,19.40
2023-09-24T17:11:26.885Z,19.42
2023-09-24T17:13:54.583Z,19.50
2023-09-24T17:16:22.243Z,19.47
2023-09-24T17:18:50.537Z,19.41
2023-09-24T17:21:19.717Z,19.55
2023-09-24T17:23:47.993Z,19.46
2023-09-24T17:26:17.299Z,19.53
2023-09-24T17:28:45.905Z,19.01
2023-09-24T17:31:14.403Z,18.98
2023-09-24T17:33:42.337Z,18.96
2023-09-24T17:36:13.009Z,18.92
2023-09-24T17:38:42.201Z,18.94
2023-09-24T17:41:10.177Z,19.09
2023-09-24T17:43:37.781Z,19.11
2023-09-24T17:46:06.178Z,18.77
2023-09-24T17:48:33.960Z,18.49
2023-09-24T17:51:05.019Z,18.25
2023-09-24T17:53:33.813Z,18.48
2023-09-24T17:56:03.501Z,18.34
2023-09-24T17:58:31.192Z,18.47
2023-09-24T18:01:06.225Z,18.37
2023-09-24T18:03:34.674Z,18.29
2023-09-24T18:06:02.768Z,18.15
2023-09-24T18:08:32.243Z,18.02
2023-09-24T18:11:00.301Z,18.08
2023-09-24T18:13:29.658Z,18.13
2023-09-24T18:15:59.122Z,17.74
2023-09-24T18:18:28.237Z,17.69
2023-09-24T18:20:57.865Z,17.94
2023-09-24T18:23:25.864Z,17.59
2023-09-24T18:25:53.964Z,17.66
2023-09-24T18:28:21.621Z,17.81
2023-09-24T18:30:50.839Z,17.70
2023-09-24T18:33:18.692Z,17.59
2023-09-24T18:35:46.526Z,17.17
2023-09-24T18:38:14.163Z,17.09
2023-09-24T18:40:43.028Z,16.99
2023-09-24T18:43:10.634Z,17.53
2023-09-24T18:45:38.932Z,17.68
2023-09-24T18:48:08.606Z,17.26
2023-09-24T18:50:36.959Z,17.16
2023-09-24T18:53:05.056Z,17.40
2023-09-24T18:55:32.740Z,17.01
2023-09-24T18:58:00.549Z,17.12
2023-09-24T19:00:28.231Z,17.18
2023-09-24T19:02:56.022Z,17.04
2023-09-24T19:05:25.232Z,17.16
2023-09-24T19:07:53.373Z,17.22
2023-09-24T19:10:20.931Z,17.11
2023-09-24T19:12:48.907Z,17.05
2023-09-24T19:15:17.821Z,17.06
2023-09-24T19:17:46.868Z,16.88
2023-09-24T19:20:14.766Z,17.05
2023-09-24T19:22:43.749Z,17.17
2023-09-24T19:25:11.392Z,17.08
2023-09-24T19:27:39.031Z,17.03
2023-09-24T19:30:07.519Z,17.07
2023-09-24T19:32:35.236Z,16.81
2023-09-24T19:35:03.042Z,16.60
2023-09-24T19:37:30.676Z,16.37
2023-09-24T19:39:59.663Z,16.29
2023-09-24T19:42:27.391Z,16.32
2023-09-24T19:44:55.056Z,16.17
2023-09-24T19:47:22.751Z,16.16
2023-09-24T19:49:50.777Z,16.10
2023-09-24T19:52:18.370Z,16.18
2023-09-24T19:54:46.008Z,16.38
2023-09-24T19:57:15.363Z,16.35
2023-09-24T19:59:43.042Z,16.33
2023-09-24T20:02:10.669Z,16.38
2023-09-24T20:04:38.291Z,16.36
2023-09-24T20:07:05.986Z,15.99
2023-09-24T20:09:33.834Z,16.25
2023-09-24T20:12:01.646Z,15.92
2023-09-24T20:14:34.052Z,15.96
2023-09-24T20:17:01.815Z,16.00
2023-09-24T20:19:29.870Z,15.96
2023-09-24T20:21:58.714Z,15.85
2023-09-24T20:24:28.458Z,15.96
2023-09-24T20:26:56.144Z,15.72
2023-09-24T20:29:23.778Z,16.04
2023-09-24T20:31:52.908Z,16.00
2023-09-24T20:34:20.602Z,16.23
2023-09-24T20:36:48.279Z,16.06
2023-09-24T20:39:16.136Z,16.05
2023-09-24T20:41:44.144Z,16.16
2023-09-24T20:44:11.750Z,16.29
2023-09-24T20:46:42.331Z,16.23
2023-09-24T20:49:11.473Z,16.14
2023-09-24T20:51:39.610Z,16.03
2023-09-24T20:54:32.149Z,16.25
2023-09-24T20:57:05.859Z,15.85
2023-09-24T20:59:37.152Z,15.86
2023-09-24T21:02:05.053Z,15.70
2023-09-24T21:04:35.867Z,16.11
2023-09-24T21:07:03.521Z,16.09
2023-09-24T21:09:31.199Z,15.72
2023-09-24T21:11:58.876Z,15.65
2023-09-24T21:14:27.041Z,15.71
2023-09-24T21:16:55.055Z,15.41
2023-09-24T21:19:22.774Z,15.55
2023-09-24T21:21:51.832Z,15.48
2023-09-24T21:24:19.529Z,15.42
2023-09-24T21:26:47.185Z,15.47
2023-09-24T21:29:14.867Z,15.32
2023-09-24T21:31:42.685Z,15.46
2023-09-24T21:34:10.472Z,15.23
2023-09-24T21:39:53.975Z,14.95
2023-09-24T21:42:22.072Z,15.24
2023-09-24T21:44:49.713Z,15.30
2023-09-24T21:47:17.423Z,15.12
2023-09-24T21:49:45.207Z,15.14
2023-09-24T21:52:12.792Z,15.09
2023-09-24T21:54:40.454Z,15.06
2023-09-24T21:57:09.530Z,15.14
2023-09-24T21:59:37.154Z,15.04
2023-09-24T22:02:04.887Z,14.93
2023-09-24T22:04:32.830Z,14.90
2023-09-24T22:07:00.805Z,15.28
2023-09-24T22:09:28.792Z,15.41
2023-09-24T22:11:56.394Z,15.06
2023-09-24T22:14:25.572Z,14.90
2023-09-24T22:16:53.371Z,15.09
2023-09-24T22:19:20.975Z,15.09
2023-09-24T22:21:48.631Z,15.17
2023-09-24T22:24:16.307Z,15.14
2023-09-24T22:26:43.898Z,15.12
2023-09-24T22:29:11.512Z,15.28
2023-09-24T22:31:40.651Z,15.37
2023-09-24T22:34:12.614Z,15.38
2023-09-24T22:36:40.238Z,15.04
2023-09-24T22:39:07.912Z,15.11
2023-09-24T22:41:35.978Z,15.37
2023-09-24T22:44:05.091Z,15.14
2023-09-24T22:46:32.852Z,15.21
2023-09-24T22:49:02.138Z,15.26
2023-09-24T22:51:29.823Z,15.35
2023-09-24T22:53:57.505Z,15.52
2023-09-24T22:56:25.322Z,15.23
2023-09-24T22:58:53.455Z,14.93
2023-09-24T23:01:21.093Z,14.93
2023-09-24T23:03:48.924Z,14.83
2023-09-24T23:06:18.153Z,14.67
2023-09-24T23:08:45.777Z,14.96
2023-09-24T23:11:13.437Z,14.83
2023-09-24T23:13:41.072Z,14.60
2023-09-24T23:16:08.781Z,14.72
2023-09-24T23:18:38.040Z,14.52
2023-09-24T23:21:06.607Z,14.87
2023-09-24T23:23:36.175Z,14.59
2023-09-24T23:26:05.520Z,14.52
2023-09-24T23:28:33.187Z,14.33
2023-09-24T23:31:00.887Z,14.51
2023-09-24T23:33:28.578Z,14.38
2023-09-24T23:35:56.179Z,14.44
2023-09-24T23:38:23.892Z,14.03
2023-09-24T23:40:53.558Z,14.21
2023-09-24T23:43:21.569Z,14.28
2023-09-24T23:45:49.294Z,14.40
2023-09-24T23:48:17.703Z,14.35
2023-09-24T23:50:45.741Z,14.54
2023-09-24T23:53:15.632Z,14.15
2023-09-24T23:55:43.463Z,14.12
2023-09-24T23:58:12.513Z,14.29
